sensor_id;sensor_type;location;lat;lon;timestamp;P1;durP1;ratioP1;P2;durP2;ratioP2
19183;SDS011;9724;51.194;6.856;2023-02-03T00:01:03;16.20;;;8.03;;
19183;SDS011;9724;51.194;6.856;2023-02-03T00:03:29;17.73;;;7.63;;
19183;SDS011;9724;51.194;6.856;2023-02-03T00:05:56;12.43;;;6.70;;
19183;SDS011;9724;51.194;6.856;2023-02-03T00:08:22;15.63;;;7.50;;
19183;SDS011;9724;51.194;6.856;2023-02-03T00:10:48;17.47;;;7.43;;
19183;SDS011;9724;51.194;6.856;2023-02-03T00:13:15;16.97;;;7.50;;
19183;SDS011;9724;51.194;6.856;2023-02-03T00:15:41;14.80;;;7.43;;
19183;SDS011;9724;51.194;6.856;2023-02-03T00:18:07;14.70;;;7.10;;
19183;SDS011;9724;51.194;6.856;2023-02-03T00:20:34;13.80;;;7.43;;
19183;SDS011;9724;51.194;6.856;2023-02-03T00:23:03;15.73;;;7.93;;
19183;SDS011;9724;51.194;6.856;2023-02-03T00:25:30;13.27;;;6.47;;
19183;SDS011;9724;51.194;6.856;2023-02-03T00:27:57;17.00;;;7.00;;
19183;SDS011;9724;51.194;6.856;2023-02-03T00:30:23;15.00;;;7.07;;
19183;SDS011;9724;51.194;6.856;2023-02-03T00:32:50;13.77;;;6.93;;
19183;SDS011;9724;51.194;6.856;2023-02-03T00:35:16;15.53;;;7.60;;
19183;SDS011;9724;51.194;6.856;2023-02-03T00:37:42;16.77;;;6.60;;
19183;SDS011;9724;51.194;6.856;2023-02-03T00:40:09;21.57;;;7.00;;
19183;SDS011;9724;51.194;6.856;2023-02-03T00:42:37;16.13;;;6.63;;
19183;SDS011;9724;51.194;6.856;2023-02-03T00:45:03;15.83;;;6.50;;
19183;SDS011;9724;51.194;6.856;2023-02-03T00:47:29;13.40;;;6.50;;
19183;SDS011;9724;51.194;6.856;2023-02-03T00:49:56;18.70;;;6.73;;
19183;SDS011;9724;51.194;6.856;2023-02-03T00:52:22;11.33;;;5.80;;
19183;SDS011;9724;51.194;6.856;2023-02-03T00:54:49;19.27;;;5.67;;
19183;SDS011;9724;51.194;6.856;2023-02-03T00:57:15;10.50;;;5.53;;
19183;SDS011;9724;51.194;6.856;2023-02-03T00:59:41;13.93;;;6.20;;
19183;SDS011;9724;51.194;6.856;2023-02-03T01:02:08;12.43;;;5.43;;
19183;SDS011;9724;51.194;6.856;2023-02-03T01:04:34;15.40;;;5.47;;
19183;SDS011;9724;51.194;6.856;2023-02-03T01:07:00;14.47;;;6.17;;
19183;SDS011;9724;51.194;6.856;2023-02-03T01:09:26;11.80;;;5.33;;
19183;SDS011;9724;51.194;6.856;2023-02-03T01:11:52;13.50;;;5.17;;
19183;SDS011;9724;51.194;6.856;2023-02-03T01:14:19;14.10;;;5.30;;
19183;SDS011;9724;51.194;6.856;2023-02-03T01:16:45;9.83;;;5.03;;
19183;SDS011;9724;51.194;6.856;2023-02-03T01:19:12;14.00;;;4.80;;
19183;SDS011;9724;51.194;6.856;2023-02-03T01:21:39;11.60;;;4.87;;
19183;SDS011;9724;51.194;6.856;2023-02-03T01:24:06;11.33;;;4.47;;
19183;SDS011;9724;51.194;6.856;2023-02-03T01:26:34;13.80;;;4.77;;
19183;SDS011;9724;51.194;6.856;2023-02-03T01:29:00;11.27;;;4.90;;
19183;SDS011;9724;51.194;6.856;2023-02-03T01:31:27;9.97;;;4.80;;
19183;SDS011;9724;51.194;6.856;2023-02-03T01:33:55;13.03;;;4.80;;
19183;SDS011;9724;51.194;6.856;2023-02-03T01:36:22;13.30;;;4.53;;
19183;SDS011;9724;51.194;6.856;2023-02-03T01:38:50;16.07;;;4.50;;
19183;SDS011;9724;51.194;6.856;2023-02-03T01:41:17;11.77;;;4.90;;
19183;SDS011;9724;51.194;6.856;2023-02-03T01:43:45;14.67;;;4.77;;
19183;SDS011;9724;51.194;6.856;2023-02-03T01:46:17;13.37;;;4.70;;
19183;SDS011;9724;51.194;6.856;2023-02-03T01:48:48;10.37;;;4.60;;
19183;SDS011;9724;51.194;6.856;2023-02-03T01:51:15;10.80;;;4.37;;
19183;SDS011;9724;51.194;6.856;2023-02-03T01:53:42;8.47;;;4.60;;
19183;SDS011;9724;51.194;6.856;2023-02-03T01:56:08;12.37;;;5.00;;
19183;SDS011;9724;51.194;6.856;2023-02-03T01:58:35;12.20;;;4.43;;
19183;SDS011;9724;51.194;6.856;2023-02-03T02:01:03;9.20;;;4.30;;
19183;SDS011;9724;51.194;6.856;2023-02-03T02:03:30;10.17;;;4.60;;
19183;SDS011;9724;51.194;6.856;2023-02-03T02:05:59;13.70;;;5.13;;
19183;SDS011;9724;51.194;6.856;2023-02-03T02:08:28;14.57;;;4.93;;
19183;SDS011;9724;51.194;6.856;2023-02-03T02:10:55;7.90;;;4.30;;
19183;SDS011;9724;51.194;6.856;2023-02-03T02:13:22;14.17;;;4.63;;
19183;SDS011;9724;51.194;6.856;2023-02-03T02:15:50;8.63;;;4.53;;
19183;SDS011;9724;51.194;6.856;2023-02-03T02:18:23;11.43;;;4.70;;
19183;SDS011;9724;51.194;6.856;2023-02-03T02:20:58;9.70;;;3.83;;
19183;SDS011;9724;51.194;6.856;2023-02-03T02:23:52;14.73;;;4.03;;
19183;SDS011;9724;51.194;6.856;2023-02-03T02:26:30;10.90;;;4.30;;
19183;SDS011;9724;51.194;6.856;2023-02-03T02:29:11;8.57;;;3.87;;
19183;SDS011;9724;51.194;6.856;2023-02-03T02:32:01;10.57;;;4.27;;
19183;SDS011;9724;51.194;6.856;2023-02-03T02:34:36;9.97;;;4.20;;
19183;SDS011;9724;51.194;6.856;2023-02-03T02:37:09;13.37;;;4.40;;
19183;SDS011;9724;51.194;6.856;2023-02-03T02:39:43;12.33;;;3.90;;
19183;SDS011;9724;51.194;6.856;2023-02-03T02:42:13;14.70;;;4.43;;
19183;SDS011;9724;51.194;6.856;2023-02-03T02:44:42;11.90;;;3.97;;
19183;SDS011;9724;51.194;6.856;2023-02-03T02:47:11;15.87;;;4.87;;
19183;SDS011;9724;51.194;6.856;2023-02-03T02:49:43;11.17;;;3.90;;
19183;SDS011;9724;51.194;6.856;2023-02-03T02:52:12;12.47;;;3.87;;
19183;SDS011;9724;51.194;6.856;2023-02-03T02:54:39;10.37;;;4.10;;
19183;SDS011;9724;51.194;6.856;2023-02-03T02:57:08;9.40;;;3.63;;
19183;SDS011;9724;51.194;6.856;2023-02-03T02:59:35;6.90;;;3.53;;
19183;SDS011;9724;51.194;6.856;2023-02-03T03:02:01;10.70;;;3.80;;
19183;SDS011;9724;51.194;6.856;2023-02-03T03:04:29;11.53;;;3.47;;
19183;SDS011;9724;51.194;6.856;2023-02-03T03:06:57;12.60;;;3.87;;
19183;SDS011;9724;51.194;6.856;2023-02-03T03:09:26;9.23;;;3.63;;
19183;SDS011;9724;51.194;6.856;2023-02-03T03:12:01;13.90;;;4.07;;
19183;SDS011;9724;51.194;6.856;2023-02-03T03:14:29;8.67;;;3.40;;
19183;SDS011;9724;51.194;6.856;2023-02-03T03:16:56;15.43;;;3.60;;
19183;SDS011;9724;51.194;6.856;2023-02-03T03:19:26;12.93;;;3.70;;
19183;SDS011;9724;51.194;6.856;2023-02-03T03:21:55;14.50;;;4.00;;
19183;SDS011;9724;51.194;6.856;2023-02-03T03:24:25;8.70;;;3.80;;
19183;SDS011;9724;51.194;6.856;2023-02-03T03:26:54;9.23;;;3.73;;
19183;SDS011;9724;51.194;6.856;2023-02-03T03:29:23;8.20;;;3.80;;
19183;SDS011;9724;51.194;6.856;2023-02-03T03:31:51;12.73;;;4.13;;
19183;SDS011;9724;51.194;6.856;2023-02-03T03:34:18;9.93;;;4.20;;
19183;SDS011;9724;51.194;6.856;2023-02-03T03:36:45;17.27;;;4.20;;
19183;SDS011;9724;51.194;6.856;2023-02-03T03:39:16;8.60;;;4.00;;
19183;SDS011;9724;51.194;6.856;2023-02-03T03:41:48;10.97;;;4.43;;
19183;SDS011;9724;51.194;6.856;2023-02-03T03:44:19;16.43;;;4.20;;
19183;SDS011;9724;51.194;6.856;2023-02-03T03:46:47;13.73;;;4.33;;
19183;SDS011;9724;51.194;6.856;2023-02-03T03:49:16;11.30;;;4.47;;
19183;SDS011;9724;51.194;6.856;2023-02-03T03:51:45;8.37;;;4.33;;
19183;SDS011;9724;51.194;6.856;2023-02-03T03:54:13;12.57;;;5.30;;
19183;SDS011;9724;51.194;6.856;2023-02-03T03:56:44;15.00;;;6.07;;
19183;SDS011;9724;51.194;6.856;2023-02-03T03:59:11;13.47;;;5.00;;
19183;SDS011;9724;51.194;6.856;2023-02-03T04:01:39;10.20;;;4.90;;
19183;SDS011;9724;51.194;6.856;2023-02-03T04:04:06;9.43;;;5.37;;
19183;SDS011;9724;51.194;6.856;2023-02-03T04:06:35;10.63;;;4.40;;
19183;SDS011;9724;51.194;6.856;2023-02-03T04:09:02;7.97;;;5.13;;
19183;SDS011;9724;51.194;6.856;2023-02-03T04:11:30;10.00;;;5.10;;
19183;SDS011;9724;51.194;6.856;2023-02-03T04:14:14;12.47;;;4.77;;
19183;SDS011;9724;51.194;6.856;2023-02-03T04:16:41;10.37;;;4.87;;
19183;SDS011;9724;51.194;6.856;2023-02-03T04:19:07;11.93;;;4.73;;
19183;SDS011;9724;51.194;6.856;2023-02-03T04:21:33;12.63;;;4.63;;
19183;SDS011;9724;51.194;6.856;2023-02-03T04:24:00;14.30;;;4.53;;
19183;SDS011;9724;51.194;6.856;2023-02-03T04:26:26;11.63;;;4.60;;
19183;SDS011;9724;51.194;6.856;2023-02-03T04:28:52;12.60;;;4.57;;
19183;SDS011;9724;51.194;6.856;2023-02-03T04:31:19;10.73;;;4.43;;
19183;SDS011;9724;51.194;6.856;2023-02-03T04:33:45;16.50;;;4.47;;
19183;SDS011;9724;51.194;6.856;2023-02-03T04:36:11;9.47;;;5.10;;
19183;SDS011;9724;51.194;6.856;2023-02-03T04:38:37;14.17;;;4.67;;
19183;SDS011;9724;51.194;6.856;2023-02-03T04:41:03;11.07;;;4.03;;
19183;SDS011;9724;51.194;6.856;2023-02-03T04:43:29;12.13;;;4.27;;
19183;SDS011;9724;51.194;6.856;2023-02-03T04:45:58;16.20;;;4.20;;
19183;SDS011;9724;51.194;6.856;2023-02-03T04:48:24;15.30;;;4.10;;
19183;SDS011;9724;51.194;6.856;2023-02-03T04:50:50;16.23;;;4.63;;
19183;SDS011;9724;51.194;6.856;2023-02-03T04:53:17;13.60;;;4.20;;
19183;SDS011;9724;51.194;6.856;2023-02-03T04:55:45;11.87;;;4.07;;
19183;SDS011;9724;51.194;6.856;2023-02-03T04:58:11;7.90;;;3.80;;
19183;SDS011;9724;51.194;6.856;2023-02-03T05:00:37;14.33;;;4.03;;
19183;SDS011;9724;51.194;6.856;2023-02-03T05:03:04;11.63;;;4.27;;
19183;SDS011;9724;51.194;6.856;2023-02-03T05:05:30;10.93;;;3.93;;
19183;SDS011;9724;51.194;6.856;2023-02-03T05:07:56;14.37;;;3.90;;
19183;SDS011;9724;51.194;6.856;2023-02-03T05:10:23;14.07;;;3.90;;
19183;SDS011;9724;51.194;6.856;2023-02-03T05:12:49;10.23;;;3.50;;
19183;SDS011;9724;51.194;6.856;2023-02-03T05:15:15;13.13;;;3.60;;
19183;SDS011;9724;51.194;6.856;2023-02-03T05:17:41;9.80;;;3.80;;
19183;SDS011;9724;51.194;6.856;2023-02-03T05:20:09;8.63;;;3.40;;
19183;SDS011;9724;51.194;6.856;2023-02-03T05:22:36;12.43;;;3.77;;
19183;SDS011;9724;51.194;6.856;2023-02-03T05:25:02;15.10;;;4.00;;
19183;SDS011;9724;51.194;6.856;2023-02-03T05:27:29;10.23;;;3.30;;
19183;SDS011;9724;51.194;6.856;2023-02-03T05:29:55;12.43;;;3.23;;
19183;SDS011;9724;51.194;6.856;2023-02-03T05:32:21;10.93;;;3.20;;
19183;SDS011;9724;51.194;6.856;2023-02-03T05:34:48;9.37;;;2.87;;
19183;SDS011;9724;51.194;6.856;2023-02-03T05:37:14;11.07;;;3.40;;
19183;SDS011;9724;51.194;6.856;2023-02-03T05:39:41;9.37;;;3.43;;
19183;SDS011;9724;51.194;6.856;2023-02-03T05:42:09;10.50;;;3.03;;
19183;SDS011;9724;51.194;6.856;2023-02-03T05:44:35;11.20;;;3.20;;
19183;SDS011;9724;51.194;6.856;2023-02-03T05:47:01;10.67;;;2.80;;
19183;SDS011;9724;51.194;6.856;2023-02-03T05:49:27;8.47;;;2.80;;
19183;SDS011;9724;51.194;6.856;2023-02-03T05:51:53;14.67;;;2.87;;
19183;SDS011;9724;51.194;6.856;2023-02-03T05:54:21;12.43;;;2.80;;
19183;SDS011;9724;51.194;6.856;2023-02-03T05:56:47;12.23;;;3.10;;
19183;SDS011;9724;51.194;6.856;2023-02-03T05:59:13;10.53;;;2.87;;
19183;SDS011;9724;51.194;6.856;2023-02-03T06:01:41;13.70;;;2.90;;
19183;SDS011;9724;51.194;6.856;2023-02-03T06:04:08;11.60;;;2.47;;
19183;SDS011;9724;51.194;6.856;2023-02-03T06:06:34;10.27;;;2.40;;
19183;SDS011;9724;51.194;6.856;2023-02-03T06:09:01;9.37;;;2.40;;
19183;SDS011;9724;51.194;6.856;2023-02-03T06:11:29;11.03;;;2.40;;
19183;SDS011;9724;51.194;6.856;2023-02-03T06:13:56;7.70;;;2.53;;
19183;SDS011;9724;51.194;6.856;2023-02-03T06:16:23;8.47;;;2.10;;
19183;SDS011;9724;51.194;6.856;2023-02-03T06:18:50;7.73;;;2.37;;
19183;SDS011;9724;51.194;6.856;2023-02-03T06:21:16;6.77;;;2.30;;
19183;SDS011;9724;51.194;6.856;2023-02-03T06:23:42;7.33;;;2.33;;
19183;SDS011;9724;51.194;6.856;2023-02-03T06:26:08;5.90;;;2.20;;
19183;SDS011;9724;51.194;6.856;2023-02-03T06:28:35;10.43;;;2.30;;
19183;SDS011;9724;51.194;6.856;2023-02-03T06:31:02;7.17;;;1.97;;
19183;SDS011;9724;51.194;6.856;2023-02-03T06:33:29;8.53;;;2.00;;
19183;SDS011;9724;51.194;6.856;2023-02-03T06:35:55;8.50;;;1.80;;
19183;SDS011;9724;51.194;6.856;2023-02-03T06:38:21;12.83;;;2.97;;
19183;SDS011;9724;51.194;6.856;2023-02-03T06:40:48;7.20;;;1.93;;
19183;SDS011;9724;51.194;6.856;2023-02-03T06:43:14;10.10;;;2.17;;
19183;SDS011;9724;51.194;6.856;2023-02-03T06:45:41;10.33;;;2.20;;
19183;SDS011;9724;51.194;6.856;2023-02-03T06:48:09;6.23;;;1.87;;
19183;SDS011;9724;51.194;6.856;2023-02-03T06:50:35;10.57;;;2.20;;
19183;SDS011;9724;51.194;6.856;2023-02-03T06:53:02;3.30;;;1.60;;
19183;SDS011;9724;51.194;6.856;2023-02-03T06:55:28;6.97;;;1.77;;
19183;SDS011;9724;51.194;6.856;2023-02-03T06:57:54;5.27;;;1.53;;
19183;SDS011;9724;51.194;6.856;2023-02-03T07:00:20;4.90;;;1.77;;
19183;SDS011;9724;51.194;6.856;2023-02-03T07:02:52;9.40;;;2.07;;
19183;SDS011;9724;51.194;6.856;2023-02-03T07:05:19;9.63;;;2.10;;
19183;SDS011;9724;51.194;6.856;2023-02-03T07:07:45;9.37;;;1.83;;
19183;SDS011;9724;51.194;6.856;2023-02-03T07:10:11;6.80;;;1.73;;
19183;SDS011;9724;51.194;6.856;2023-02-03T07:12:37;5.57;;;1.60;;
19183;SDS011;9724;51.194;6.856;2023-02-03T07:15:03;7.10;;;2.00;;
19183;SDS011;9724;51.194;6.856;2023-02-03T07:17:30;5.17;;;1.73;;
19183;SDS011;9724;51.194;6.856;2023-02-03T07:19:57;4.03;;;1.90;;
19183;SDS011;9724;51.194;6.856;2023-02-03T07:22:23;6.63;;;1.90;;
19183;SDS011;9724;51.194;6.856;2023-02-03T07:24:49;7.70;;;1.80;;
19183;SDS011;9724;51.194;6.856;2023-02-03T07:27:15;5.50;;;1.97;;
19183;SDS011;9724;51.194;6.856;2023-02-03T07:29:41;8.50;;;1.87;;
19183;SDS011;9724;51.194;6.856;2023-02-03T07:32:08;6.37;;;1.80;;
19183;SDS011;9724;51.194;6.856;2023-02-03T07:34:34;6.10;;;2.07;;
19183;SDS011;9724;51.194;6.856;2023-02-03T07:37:01;6.03;;;2.23;;
19183;SDS011;9724;51.194;6.856;2023-02-03T07:39:27;5.43;;;1.87;;
19183;SDS011;9724;51.194;6.856;2023-02-03T07:41:53;7.17;;;2.10;;
19183;SDS011;9724;51.194;6.856;2023-02-03T07:44:19;8.37;;;2.00;;
19183;SDS011;9724;51.194;6.856;2023-02-03T07:46:45;5.07;;;2.20;;
19183;SDS011;9724;51.194;6.856;2023-02-03T07:49:12;9.93;;;2.23;;
19183;SDS011;9724;51.194;6.856;2023-02-03T07:51:39;6.00;;;2.03;;
19183;SDS011;9724;51.194;6.856;2023-02-03T07:54:06;3.80;;;2.00;;
19183;SDS011;9724;51.194;6.856;2023-02-03T07:56:32;7.20;;;2.20;;
19183;SDS011;9724;51.194;6.856;2023-02-03T07:58:58;5.63;;;2.20;;
19183;SDS011;9724;51.194;6.856;2023-02-03T08:01:25;5.27;;;2.10;;
19183;SDS011;9724;51.194;6.856;2023-02-03T08:03:51;7.17;;;2.23;;
19183;SDS011;9724;51.194;6.856;2023-02-03T08:06:20;8.97;;;2.60;;
19183;SDS011;9724;51.194;6.856;2023-02-03T08:08:46;3.53;;;2.23;;
19183;SDS011;9724;51.194;6.856;2023-02-03T08:11:13;10.30;;;2.70;;
19183;SDS011;9724;51.194;6.856;2023-02-03T08:13:39;11.27;;;2.60;;
19183;SDS011;9724;51.194;6.856;2023-02-03T08:16:05;8.07;;;1.97;;
19183;SDS011;9724;51.194;6.856;2023-02-03T08:18:31;5.10;;;2.10;;
19183;SDS011;9724;51.194;6.856;2023-02-03T08:20:58;4.40;;;2.30;;
19183;SDS011;9724;51.194;6.856;2023-02-03T08:23:25;12.30;;;2.80;;
19183;SDS011;9724;51.194;6.856;2023-02-03T08:25:51;7.13;;;2.60;;
19183;SDS011;9724;51.194;6.856;2023-02-03T08:28:18;11.80;;;2.57;;
19183;SDS011;9724;51.194;6.856;2023-02-03T08:30:44;4.97;;;2.57;;
19183;SDS011;9724;51.194;6.856;2023-02-03T08:33:11;5.80;;;2.20;;
19183;SDS011;9724;51.194;6.856;2023-02-03T08:35:37;6.10;;;2.20;;
19183;SDS011;9724;51.194;6.856;2023-02-03T08:38:04;7.10;;;2.47;;
19183;SDS011;9724;51.194;6.856;2023-02-03T08:40:30;8.10;;;2.37;;
19183;SDS011;9724;51.194;6.856;2023-02-03T08:42:56;6.67;;;2.73;;
19183;SDS011;9724;51.194;6.856;2023-02-03T08:45:23;5.13;;;2.47;;
19183;SDS011;9724;51.194;6.856;2023-02-03T08:47:49;7.87;;;2.53;;
19183;SDS011;9724;51.194;6.856;2023-02-03T08:50:15;10.17;;;2.50;;
19183;SDS011;9724;51.194;6.856;2023-02-03T08:52:42;7.93;;;2.93;;
19183;SDS011;9724;51.194;6.856;2023-02-03T08:55:08;6.77;;;3.00;;
19183;SDS011;9724;51.194;6.856;2023-02-03T08:57:35;13.93;;;3.60;;
19183;SDS011;9724;51.194;6.856;2023-02-03T09:00:02;11.63;;;3.60;;
19183;SDS011;9724;51.194;6.856;2023-02-03T09:02:29;7.93;;;3.53;;
19183;SDS011;9724;51.194;6.856;2023-02-03T09:04:55;4.23;;;2.77;;
19183;SDS011;9724;51.194;6.856;2023-02-03T09:07:21;5.87;;;2.80;;
19183;SDS011;9724;51.194;6.856;2023-02-03T09:09:48;6.60;;;3.47;;
19183;SDS011;9724;51.194;6.856;2023-02-03T09:12:14;12.40;;;3.93;;
19183;SDS011;9724;51.194;6.856;2023-02-03T09:14:40;5.13;;;3.60;;
19183;SDS011;9724;51.194;6.856;2023-02-03T09:17:06;10.30;;;3.80;;
19183;SDS011;9724;51.194;6.856;2023-02-03T09:19:34;8.77;;;4.10;;
19183;SDS011;9724;51.194;6.856;2023-02-03T09:22:02;7.53;;;4.00;;
19183;SDS011;9724;51.194;6.856;2023-02-03T09:24:28;9.93;;;4.00;;
19183;SDS011;9724;51.194;6.856;2023-02-03T09:26:55;9.50;;;4.23;;
19183;SDS011;9724;51.194;6.856;2023-02-03T09:29:21;6.47;;;4.13;;
19183;SDS011;9724;51.194;6.856;2023-02-03T09:31:48;12.00;;;4.23;;
19183;SDS011;9724;51.194;6.856;2023-02-03T09:34:17;7.20;;;4.50;;
19183;SDS011;9724;51.194;6.856;2023-02-03T09:36:44;10.77;;;4.90;;
19183;SDS011;9724;51.194;6.856;2023-02-03T09:39:10;9.27;;;5.20;;
19183;SDS011;9724;51.194;6.856;2023-02-03T09:44:28;8.80;;;5.23;;
19183;SDS011;9724;51.194;6.856;2023-02-03T09:47:01;9.50;;;5.30;;
19183;SDS011;9724;51.194;6.856;2023-02-03T09:49:32;10.67;;;5.70;;
19183;SDS011;9724;51.194;6.856;2023-02-03T09:52:04;6.97;;;5.40;;
19183;SDS011;9724;51.194;6.856;2023-02-03T09:54:35;9.27;;;5.47;;
19183;SDS011;9724;51.194;6.856;2023-02-03T09:57:04;8.20;;;5.63;;
19183;SDS011;9724;51.194;6.856;2023-02-03T09:59:34;9.50;;;5.37;;
19183;SDS011;9724;51.194;6.856;2023-02-03T10:02:04;11.53;;;6.10;;
19183;SDS011;9724;51.194;6.856;2023-02-03T10:04:46;14.67;;;6.63;;
19183;SDS011;9724;51.194;6.856;2023-02-03T10:07:19;11.70;;;6.80;;
19183;SDS011;9724;51.194;6.856;2023-02-03T10:09:52;10.77;;;6.97;;
19183;SDS011;9724;51.194;6.856;2023-02-03T10:12:30;10.47;;;6.17;;
19183;SDS011;9724;51.194;6.856;2023-02-03T10:15:10;8.10;;;6.47;;
19183;SDS011;9724;51.194;6.856;2023-02-03T10:17:45;11.77;;;7.20;;
19183;SDS011;9724;51.194;6.856;2023-02-03T10:20:14;8.90;;;6.90;;
19183;SDS011;9724;51.194;6.856;2023-02-03T10:22:43;15.20;;;6.87;;
19183;SDS011;9724;51.194;6.856;2023-02-03T10:25:15;19.83;;;7.20;;
19183;SDS011;9724;51.194;6.856;2023-02-03T10:27:49;9.47;;;7.20;;
19183;SDS011;9724;51.194;6.856;2023-02-03T10:30:18;9.13;;;7.83;;
19183;SDS011;9724;51.194;6.856;2023-02-03T10:32:45;17.67;;;8.17;;
19183;SDS011;9724;51.194;6.856;2023-02-03T10:35:13;13.23;;;8.00;;
19183;SDS011;9724;51.194;6.856;2023-02-03T10:37:40;13.80;;;8.20;;
19183;SDS011;9724;51.194;6.856;2023-02-03T10:40:10;12.70;;;8.10;;
19183;SDS011;9724;51.194;6.856;2023-02-03T10:42:37;15.23;;;8.23;;
19183;SDS011;9724;51.194;6.856;2023-02-03T10:45:21;12.57;;;8.73;;
19183;SDS011;9724;51.194;6.856;2023-02-03T10:47:48;15.43;;;8.87;;
19183;SDS011;9724;51.194;6.856;2023-02-03T10:50:17;9.73;;;8.33;;
19183;SDS011;9724;51.194;6.856;2023-02-03T10:52:44;16.10;;;9.00;;
19183;SDS011;9724;51.194;6.856;2023-02-03T10:57:55;16.70;;;8.40;;
19183;SDS011;9724;51.194;6.856;2023-02-03T11:00:23;14.17;;;8.87;;
19183;SDS011;9724;51.194;6.856;2023-02-03T11:02:54;14.80;;;8.90;;
19183;SDS011;9724;51.194;6.856;2023-02-03T11:05:21;17.10;;;9.37;;
19183;SDS011;9724;51.194;6.856;2023-02-03T11:07:49;12.90;;;8.93;;
19183;SDS011;9724;51.194;6.856;2023-02-03T11:10:31;15.27;;;9.00;;
19183;SDS011;9724;51.194;6.856;2023-02-03T11:13:16;15.53;;;9.13;;
19183;SDS011;9724;51.194;6.856;2023-02-03T11:15:54;16.23;;;8.70;;
19183;SDS011;9724;51.194;6.856;2023-02-03T11:18:25;14.63;;;8.60;;
19183;SDS011;9724;51.194;6.856;2023-02-03T11:20:58;12.30;;;8.43;;
19183;SDS011;9724;51.194;6.856;2023-02-03T11:23:24;15.00;;;8.70;;
19183;SDS011;9724;51.194;6.856;2023-02-03T11:25:51;13.37;;;8.67;;
19183;SDS011;9724;51.194;6.856;2023-02-03T11:28:17;12.70;;;7.73;;
19183;SDS011;9724;51.194;6.856;2023-02-03T11:30:43;16.93;;;8.50;;
19183;SDS011;9724;51.194;6.856;2023-02-03T11:33:14;13.63;;;8.50;;
19183;SDS011;9724;51.194;6.856;2023-02-03T11:35:50;13.33;;;8.70;;
19183;SDS011;9724;51.194;6.856;2023-02-03T11:38:27;16.17;;;8.57;;
19183;SDS011;9724;51.194;6.856;2023-02-03T11:40:57;14.90;;;8.73;;
19183;SDS011;9724;51.194;6.856;2023-02-03T11:43:25;15.00;;;8.73;;
19183;SDS011;9724;51.194;6.856;2023-02-03T11:45:53;19.53;;;9.03;;
19183;SDS011;9724;51.194;6.856;2023-02-03T11:48:25;19.77;;;9.77;;
19183;SDS011;9724;51.194;6.856;2023-02-03T11:50:56;12.47;;;8.70;;
19183;SDS011;9724;51.194;6.856;2023-02-03T11:53:28;13.57;;;8.97;;
19183;SDS011;9724;51.194;6.856;2023-02-03T11:56:07;15.93;;;9.63;;
19183;SDS011;9724;51.194;6.856;2023-02-03T11:58:52;22.60;;;9.60;;
19183;SDS011;9724;51.194;6.856;2023-02-03T12:04:23;15.17;;;9.27;;
19183;SDS011;9724;51.194;6.856;2023-02-03T12:07:07;12.93;;;8.80;;
19183;SDS011;9724;51.194;6.856;2023-02-03T12:09:56;14.07;;;8.03;;
19183;SDS011;9724;51.194;6.856;2023-02-03T12:12:39;18.60;;;9.00;;
19183;SDS011;9724;51.194;6.856;2023-02-03T12:18:11;16.47;;;7.93;;
19183;SDS011;9724;51.194;6.856;2023-02-03T12:20:47;14.40;;;7.63;;
19183;SDS011;9724;51.194;6.856;2023-02-03T12:23:25;13.30;;;7.27;;
19183;SDS011;9724;51.194;6.856;2023-02-03T12:25:59;12.67;;;6.93;;
19183;SDS011;9724;51.194;6.856;2023-02-03T12:28:38;12.93;;;7.40;;
19183;SDS011;9724;51.194;6.856;2023-02-03T12:31:11;10.33;;;7.10;;
19183;SDS011;9724;51.194;6.856;2023-02-03T12:33:42;14.07;;;6.40;;
19183;SDS011;9724;51.194;6.856;2023-02-03T12:36:12;13.17;;;6.30;;
19183;SDS011;9724;51.194;6.856;2023-02-03T12:38:41;12.60;;;6.20;;
19183;SDS011;9724;51.194;6.856;2023-02-03T12:41:10;12.23;;;6.60;;
19183;SDS011;9724;51.194;6.856;2023-02-03T12:43:39;13.80;;;6.10;;
19183;SDS011;9724;51.194;6.856;2023-02-03T12:46:08;9.70;;;5.97;;
19183;SDS011;9724;51.194;6.856;2023-02-03T12:48:41;12.60;;;5.17;;
19183;SDS011;9724;51.194;6.856;2023-02-03T12:51:13;8.47;;;5.00;;
19183;SDS011;9724;51.194;6.856;2023-02-03T12:53:43;9.87;;;4.70;;
19183;SDS011;9724;51.194;6.856;2023-02-03T12:56:14;10.63;;;5.27;;
19183;SDS011;9724;51.194;6.856;2023-02-03T12:58:44;13.20;;;4.50;;
19183;SDS011;9724;51.194;6.856;2023-02-03T13:01:14;15.17;;;5.20;;
19183;SDS011;9724;51.194;6.856;2023-02-03T13:03:44;16.00;;;4.87;;
19183;SDS011;9724;51.194;6.856;2023-02-03T13:06:15;13.43;;;5.00;;
19183;SDS011;9724;51.194;6.856;2023-02-03T13:08:49;9.53;;;4.47;;
19183;SDS011;9724;51.194;6.856;2023-02-03T13:11:19;11.57;;;4.13;;
19183;SDS011;9724;51.194;6.856;2023-02-03T13:13:51;11.87;;;3.90;;
19183;SDS011;9724;51.194;6.856;2023-02-03T13:16:20;12.63;;;4.00;;
19183;SDS011;9724;51.194;6.856;2023-02-03T13:18:51;13.23;;;4.73;;
19183;SDS011;9724;51.194;6.856;2023-02-03T13:21:19;12.37;;;3.90;;
19183;SDS011;9724;51.194;6.856;2023-02-03T13:23:45;9.43;;;3.67;;
19183;SDS011;9724;51.194;6.856;2023-02-03T13:26:19;6.83;;;3.63;;
19183;SDS011;9724;51.194;6.856;2023-02-03T13:29:04;13.90;;;3.90;;
19183;SDS011;9724;51.194;6.856;2023-02-03T13:31:54;14.73;;;3.63;;
19183;SDS011;9724;51.194;6.856;2023-02-03T13:34:35;10.07;;;3.70;;
19183;SDS011;9724;51.194;6.856;2023-02-03T13:37:17;10.57;;;3.30;;
19183;SDS011;9724;51.194;6.856;2023-02-03T13:39:51;13.13;;;3.50;;
19183;SDS011;9724;51.194;6.856;2023-02-03T13:42:23;15.40;;;4.00;;
19183;SDS011;9724;51.194;6.856;2023-02-03T13:44:54;9.53;;;3.47;;
19183;SDS011;9724;51.194;6.856;2023-02-03T13:47:23;10.30;;;3.77;;
19183;SDS011;9724;51.194;6.856;2023-02-03T13:49:53;10.27;;;3.70;;
19183;SDS011;9724;51.194;6.856;2023-02-03T13:52:24;9.87;;;3.77;;
19183;SDS011;9724;51.194;6.856;2023-02-03T13:54:53;7.40;;;3.30;;
19183;SDS011;9724;51.194;6.856;2023-02-03T13:57:20;13.73;;;4.33;;
19183;SDS011;9724;51.194;6.856;2023-02-03T13:59:59;9.70;;;3.63;;
19183;SDS011;9724;51.194;6.856;2023-02-03T14:02:37;8.27;;;3.27;;
19183;SDS011;9724;51.194;6.856;2023-02-03T14:05:07;11.87;;;4.30;;
19183;SDS011;9724;51.194;6.856;2023-02-03T14:07:49;9.83;;;3.80;;
19183;SDS011;9724;51.194;6.856;2023-02-03T14:10:19;17.47;;;4.30;;
19183;SDS011;9724;51.194;6.856;2023-02-03T14:12:56;16.83;;;4.10;;
19183;SDS011;9724;51.194;6.856;2023-02-03T14:15:29;7.47;;;3.40;;
19183;SDS011;9724;51.194;6.856;2023-02-03T14:18:04;9.33;;;4.30;;
19183;SDS011;9724;51.194;6.856;2023-02-03T14:21:08;9.63;;;4.00;;
19183;SDS011;9724;51.194;6.856;2023-02-03T14:23:40;6.40;;;3.67;;
19183;SDS011;9724;51.194;6.856;2023-02-03T14:26:16;12.93;;;4.10;;
19183;SDS011;9724;51.194;6.856;2023-02-03T14:28:47;9.20;;;3.70;;
19183;SDS011;9724;51.194;6.856;2023-02-03T14:31:15;10.47;;;3.70;;
19183;SDS011;9724;51.194;6.856;2023-02-03T14:33:57;8.67;;;4.20;;
19183;SDS011;9724;51.194;6.856;2023-02-03T14:39:47;11.63;;;3.83;;
19183;SDS011;9724;51.194;6.856;2023-02-03T14:45:41;10.87;;;4.03;;
19183;SDS011;9724;51.194;6.856;2023-02-03T14:48:40;14.83;;;3.97;;
19183;SDS011;9724;51.194;6.856;2023-02-03T14:51:18;10.97;;;3.90;;
19183;SDS011;9724;51.194;6.856;2023-02-03T14:53:52;13.40;;;4.53;;
19183;SDS011;9724;51.194;6.856;2023-02-03T14:56:30;10.33;;;3.77;;
19183;SDS011;9724;51.194;6.856;2023-02-03T14:59:20;13.77;;;4.33;;
19183;SDS011;9724;51.194;6.856;2023-02-03T15:04:37;10.00;;;4.30;;
19183;SDS011;9724;51.194;6.856;2023-02-03T15:07:03;12.57;;;4.80;;
19183;SDS011;9724;51.194;6.856;2023-02-03T15:09:30;12.87;;;4.40;;
19183;SDS011;9724;51.194;6.856;2023-02-03T15:11:59;8.97;;;4.20;;
19183;SDS011;9724;51.194;6.856;2023-02-03T15:14:26;7.83;;;3.83;;
19183;SDS011;9724;51.194;6.856;2023-02-03T15:16:56;10.37;;;4.27;;
19183;SDS011;9724;51.194;6.856;2023-02-03T15:19:24;6.90;;;3.73;;
19183;SDS011;9724;51.194;6.856;2023-02-03T15:21:53;6.57;;;3.70;;
19183;SDS011;9724;51.194;6.856;2023-02-03T15:24:20;13.60;;;3.73;;
19183;SDS011;9724;51.194;6.856;2023-02-03T15:26:49;14.90;;;2.90;;